TW-0017 weather

Maritime Patrol Directorate General Helipad
Tanshui, Taipei County, Taiwan

Public forecast

Using degrees Celsius for public forecast. Weather courtesy of forecast.io.

Closest aviation weather report (METAR) to Maritime Patrol Directorate General Helipad

Closest report is Taipei Songshan Airport, 9.6 nm (17.7 km) SE. Retrieved 2020/05/29 13:30 UTC (19 minutes ago):

RCSS 291330Z 07002KT 9999 FEW008 SCT080 25/25 Q1012 NOSIG RMK A2989

Closest aviation forecast (TAF) to Maritime Patrol Directorate General Helipad

Closest forecast is Taipei Songshan Airport, 9.6 nm (17.7 km) SE. Retrieved 2020/05/29 12:00 UTC (2 hours ago):

TAF RCSS 291100Z 2912/3012 28005KT 9999 FEW015 BKN032 TEMPO 2912/2916 08005KT 4000 SHRA FEW010 FEW015CB BKN017 BKN040 TEMPO 3006/3012 26008KT